Time;durP1;ratioP1;P1;durP2;ratioP2;P2;SDS_P1;SDS_P2;PMS_P1;PMS_P2;Temp;Humidity;BMP_temperature;BMP_pressure;BME280_temperature;BME280_humidity;BME280_pressure;Samples;Min_cycle;Max_cycle;Signal;HPM_P1;HPM_P2
2021/04/03 00:00:41;;;;;;;1.00;0.90;;;28.30;63.60;;;;;;5070477;28;20028;-70
2021/04/03 00:03:10;;;;;;;1.67;1.17;;;28.90;63.10;;;;;;5070336;28;20032;-69
2021/04/03 00:05:39;;;;;;;3.83;1.20;;;29.20;58.40;;;;;;5068841;28;20047;-71
2021/04/03 00:08:07;;;;;;;3.50;1.50;;;28.90;61.00;;;;;;5066102;28;20020;-69
2021/04/03 00:10:37;;;;;;;2.55;1.13;;;28.70;61.10;;;;;;5070762;28;20040;-68
2021/04/03 00:13:04;;;;;;;2.22;1.33;;;28.50;59.50;;;;;;5072986;28;20032;-69
2021/04/03 00:15:32;;;;;;;1.67;0.90;;;28.50;60.70;;;;;;5067861;28;20028;-70
2021/04/03 00:18:00;;;;;;;3.63;1.10;;;29.00;62.50;;;;;;5077418;28;20100;-67
2021/04/03 00:20:30;;;;;;;2.20;1.08;;;29.30;61.30;;;;;;5069754;28;20173;-70
2021/04/03 00:22:58;;;;;;;3.13;0.93;;;29.40;59.30;;;;;;5074274;28;20025;-70
2021/04/03 00:25:26;;;;;;;3.10;1.25;;;29.00;59.50;;;;;;5074501;28;20048;-70
2021/04/03 00:27:53;;;;;;;1.27;0.80;;;29.00;58.90;;;;;;5068421;28;20040;-69
2021/04/03 00:30:21;;;;;;;1.13;0.77;;;29.40;60.30;;;;;;5073312;28;20044;-70
2021/04/03 00:32:56;;;;;;;1.23;0.70;;;29.90;61.10;;;;;;5076968;28;20031;-70
2021/04/03 00:35:29;;;;;;;1.25;0.73;;;29.40;55.70;;;;;;5080728;28;20047;-72
2021/04/03 00:37:57;;;;;;;2.72;0.70;;;29.80;59.30;;;;;;5074054;28;20505;-71
2021/04/03 00:40:26;;;;;;;1.25;0.70;;;30.30;57.00;;;;;;5068920;28;21030;-71
2021/04/03 00:42:55;;;;;;;2.10;0.60;;;30.50;55.70;;;;;;5082390;28;20063;-70
2021/04/03 00:45:23;;;;;;;3.10;0.70;;;30.40;57.90;;;;;;5072943;28;20127;-69
2021/04/03 00:47:51;;;;;;;1.92;0.60;;;30.20;54.10;;;;;;5080629;28;20041;-70
2021/04/03 00:50:30;;;;;;;5.28;0.60;;;29.80;54.70;;;;;;5075866;28;20032;-70
2021/04/03 00:52:58;;;;;;;1.45;0.80;;;29.20;56.30;;;;;;5076871;28;20016;-68
2021/04/03 00:55:26;;;;;;;1.65;0.70;;;29.70;55.20;;;;;;5073821;28;20331;-69
2021/04/03 00:57:54;;;;;;;1.70;0.90;;;29.70;57.20;;;;;;5084392;28;20020;-70
2021/04/03 01:00:21;;;;;;;2.67;0.70;;;30.00;56.40;;;;;;5073426;28;20690;-69
2021/04/03 01:02:49;;;;;;;1.73;0.70;;;30.00;55.50;;;;;;5074389;28;20016;-70
2021/04/03 01:05:28;;;;;;;1.48;0.60;;;30.20;52.80;;;;;;5072027;28;20539;-70
2021/04/03 01:07:55;;;;;;;1.45;0.60;;;30.20;52.80;;;;;;5078448;28;20028;-70
2021/04/03 01:10:29;;;;;;;0.75;0.40;;;31.00;56.30;;;;;;5073667;28;20048;-69
2021/04/03 01:13:03;;;;;;;4.18;1.30;;;30.80;52.00;;;;;;5073746;28;20020;-72
2021/04/03 01:15:45;;;;;;;1.88;0.50;;;30.70;50.40;;;;;;5074697;28;20102;-70
2021/04/03 01:18:36;;;;;;;1.33;0.55;;;30.60;52.60;;;;;;5080195;28;20020;-69
2021/04/03 01:21:31;;;;;;;2.47;0.80;;;30.70;50.50;;;;;;5073861;28;20037;-70
2021/04/03 01:24:19;;;;;;;1.85;0.63;;;30.50;52.50;;;;;;5074202;28;20016;-70
2021/04/03 01:27:04;;;;;;;1.98;0.50;;;30.40;52.50;;;;;;5073216;28;20031;-71
2021/04/03 01:30:05;;;;;;;1.45;0.40;;;30.30;49.40;;;;;;5071283;28;20048;-71
2021/04/03 01:33:04;;;;;;;0.52;0.40;;;30.50;51.10;;;;;;5075260;28;20055;-71
2021/04/03 01:36:05;;;;;;;1.23;0.65;;;30.80;51.90;;;;;;5068715;28;20093;-71
2021/04/03 01:38:44;;;;;;;0.30;0.30;;;31.50;50.50;;;;;;5071725;28;20524;-71
2021/04/03 01:41:16;;;;;;;0.57;0.35;;;31.20;47.50;;;;;;5078022;28;20040;-70
2021/04/03 01:43:49;;;;;;;1.55;0.43;;;30.90;47.80;;;;;;5074648;28;20032;-71
2021/04/03 01:46:18;;;;;;;2.90;1.05;;;31.00;48.80;;;;;;5076814;28;20028;-70
2021/04/03 01:48:46;;;;;;;1.80;0.40;;;30.90;47.00;;;;;;5072223;28;20096;-70
2021/04/03 01:51:16;;;;;;;0.65;0.38;;;30.80;46.60;;;;;;5071339;28;20036;-70
2021/04/03 01:53:44;;;;;;;1.25;0.40;;;30.40;46.30;;;;;;5069799;28;20029;-70
2021/04/03 01:56:16;;;;;;;2.75;0.70;;;30.40;50.30;;;;;;5066731;28;20390;-69
2021/04/03 01:58:45;;;;;;;0.85;0.80;;;30.70;48.90;;;;;;5072147;28;20081;-70
2021/04/03 02:01:14;;;;;;;2.33;0.90;;;30.60;50.00;;;;;;5069966;28;20032;-71
2021/04/03 02:03:43;;;;;;;0.60;0.40;;;30.60;47.70;;;;;;5070724;28;20722;-70
2021/04/03 02:06:11;;;;;;;2.67;0.65;;;30.30;48.80;;;;;;5074501;28;20036;-71
2021/04/03 02:08:42;;;;;;;0.93;0.43;;;30.70;50.10;;;;;;5073617;28;20027;-70
2021/04/03 02:11:10;;;;;;;3.15;0.60;;;30.20;47.90;;;;;;5075578;28;20212;-70
2021/04/03 02:13:38;;;;;;;0.70;0.65;;;30.20;51.40;;;;;;5073606;28;20031;-69
2021/04/03 02:16:08;;;;;;;4.45;0.50;;;30.30;50.60;;;;;;5067088;28;20324;-71
2021/04/03 02:18:39;;;;;;;2.13;1.02;;;30.40;49.80;;;;;;5077037;28;20441;-70
2021/04/03 02:21:08;;;;;;;0.77;0.38;;;30.50;49.10;;;;;;5062270;28;20037;-70
2021/04/03 02:23:37;;;;;;;2.38;0.50;;;30.40;50.40;;;;;;5070597;28;20029;-71
2021/04/03 02:26:05;;;;;;;3.03;0.40;;;30.50;50.30;;;;;;5074856;28;20046;-71
2021/04/03 02:28:34;;;;;;;3.78;0.60;;;30.50;50.80;;;;;;5080353;28;20020;-71
2021/04/03 02:31:02;;;;;;;2.53;0.47;;;30.70;49.20;;;;;;5070742;28;20028;-71
2021/04/03 02:33:29;;;;;;;2.40;0.52;;;31.00;48.20;;;;;;5077156;28;20180;-71
2021/04/03 02:35:56;;;;;;;2.05;0.40;;;30.60;48.00;;;;;;5080435;28;20031;-71
2021/04/03 02:38:24;;;;;;;2.50;0.60;;;30.50;47.90;;;;;;5079785;28;20101;-72
2021/04/03 02:40:52;;;;;;;2.55;0.90;;;30.50;49.90;;;;;;5072922;28;20035;-70
2021/04/03 02:43:28;;;;;;;1.88;0.50;;;30.70;48.10;;;;;;5071975;28;20056;-70
2021/04/03 02:46:22;;;;;;;1.33;0.60;;;30.20;48.60;;;;;;5070331;28;20020;-70
2021/04/03 02:48:54;;;;;;;2.22;0.60;;;30.30;49.10;;;;;;5069399;28;20051;-70
2021/04/03 02:51:34;;;;;;;1.77;0.75;;;30.40;48.90;;;;;;5076847;28;20637;-70
2021/04/03 02:54:02;;;;;;;2.85;0.90;;;30.10;49.50;;;;;;5068227;28;20048;-70
2021/04/03 02:56:31;;;;;;;0.80;0.57;;;30.00;50.50;;;;;;5077660;28;20024;-70
2021/04/03 02:59:00;;;;;;;7.30;0.85;;;30.30;50.30;;;;;;5069186;28;20506;-70
2021/04/03 03:01:29;;;;;;;0.88;0.50;;;30.20;51.20;;;;;;5073241;28;20478;-70
2021/04/03 03:03:56;;;;;;;2.33;0.93;;;30.30;51.30;;;;;;5077518;28;20426;-71
2021/04/03 03:06:24;;;;;;;0.73;0.38;;;30.50;50.40;;;;;;5075152;28;20967;-69
2021/04/03 03:08:53;;;;;;;1.70;0.60;;;30.70;50.50;;;;;;5075858;28;20077;-70
2021/04/03 03:11:24;;;;;;;1.13;0.63;;;30.60;49.60;;;;;;5076255;28;20051;-69
2021/04/03 03:13:52;;;;;;;1.08;0.40;;;31.00;49.30;;;;;;5077311;28;20043;-68
2021/04/03 03:16:21;;;;;;;1.83;0.50;;;30.60;47.50;;;;;;5080140;28;20031;-68
2021/04/03 03:18:49;;;;;;;0.40;0.40;;;30.40;49.50;;;;;;5074426;28;20030;-70
2021/04/03 03:21:17;;;;;;;1.48;0.60;;;30.60;49.30;;;;;;5075769;28;20427;-69
2021/04/03 03:23:45;;;;;;;1.38;0.40;;;30.60;48.30;;;;;;5073774;28;20319;-70
2021/04/03 03:26:12;;;;;;;2.55;0.55;;;30.40;49.60;;;;;;5071261;28;20112;-71
2021/04/03 03:28:41;;;;;;;1.08;0.43;;;30.50;48.30;;;;;;5070253;28;20600;-70
2021/04/03 03:31:08;;;;;;;1.70;0.50;;;30.70;47.10;;;;;;5064093;28;20127;-70
2021/04/03 03:33:36;;;;;;;1.45;0.60;;;30.60;50.30;;;;;;5075256;28;20020;-69
2021/04/03 03:36:04;;;;;;;3.53;0.57;;;30.80;48.90;;;;;;5063150;28;20024;-68
2021/04/03 03:38:32;;;;;;;1.05;0.45;;;31.00;49.60;;;;;;5070051;28;20612;-69
2021/04/03 03:41:00;;;;;;;0.95;0.50;;;30.80;48.60;;;;;;5070742;28;20024;-67
2021/04/03 03:43:28;;;;;;;2.50;0.60;;;30.50;50.00;;;;;;5076733;28;20017;-70
2021/04/03 03:45:55;;;;;;;1.33;0.50;;;30.40;49.60;;;;;;5072318;28;20020;-70
2021/04/03 03:48:22;;;;;;;2.13;0.60;;;30.20;50.60;;;;;;5078692;28;20048;-69
2021/04/03 03:50:50;;;;;;;2.75;0.50;;;30.50;49.00;;;;;;5066084;28;20086;-69
2021/04/03 03:53:17;;;;;;;2.22;0.40;;;31.10;50.10;;;;;;5071864;28;20027;-70
2021/04/03 03:55:44;;;;;;;1.00;0.40;;;30.80;48.50;;;;;;5069736;28;20091;-69
2021/04/03 03:58:12;;;;;;;2.90;0.90;;;31.00;49.60;;;;;;5071386;28;20461;-70
2021/04/03 04:00:39;;;;;;;1.30;0.52;;;30.50;49.70;;;;;;5065504;28;20450;-69
2021/04/03 04:03:07;;;;;;;1.45;0.30;;;30.40;48.80;;;;;;5070399;28;20073;-70
2021/04/03 04:05:34;;;;;;;1.30;0.40;;;30.50;49.80;;;;;;5071656;28;20033;-70
2021/04/03 04:08:02;;;;;;;1.25;0.30;;;30.60;49.40;;;;;;5070434;28;20033;-70
2021/04/03 04:10:29;;;;;;;1.73;0.25;;;30.70;48.60;;;;;;5077954;28;20121;-69
2021/04/03 04:12:56;;;;;;;1.05;0.40;;;30.90;47.40;;;;;;5079553;28;20025;-69
2021/04/03 04:15:24;;;;;;;1.08;0.55;;;30.70;48.20;;;;;;5073543;28;20361;-70
2021/04/03 04:17:51;;;;;;;0.73;0.45;;;30.50;50.50;;;;;;5076154;28;20033;-70
2021/04/03 04:20:19;;;;;;;1.60;0.40;;;30.60;49.80;;;;;;5072492;28;20029;-70
2021/04/03 04:22:46;;;;;;;2.05;0.30;;;31.00;48.50;;;;;;5074962;28;20039;-69
2021/04/03 04:25:14;;;;;;;1.60;0.28;;;31.40;47.30;;;;;;5076418;28;20470;-69
2021/04/03 04:27:41;;;;;;;0.73;0.32;;;31.30;46.30;;;;;;5074010;28;20036;-71
2021/04/03 04:30:09;;;;;;;1.55;0.30;;;31.00;48.00;;;;;;5073080;28;20040;-70
2021/04/03 04:32:46;;;;;;;0.90;0.30;;;31.00;46.90;;;;;;5078848;28;20024;-70
2021/04/03 04:35:14;;;;;;;0.55;0.28;;;30.80;48.20;;;;;;5069908;28;20024;-69
2021/04/03 04:37:42;;;;;;;1.27;0.28;;;30.40;48.50;;;;;;5070156;28;20028;-71
2021/04/03 04:40:12;;;;;;;0.95;0.20;;;30.20;49.30;;;;;;5060089;28;20119;-70
2021/04/03 04:42:44;;;;;;;1.58;0.32;;;30.20;48.40;;;;;;5066454;28;20071;-70
2021/04/03 04:45:12;;;;;;;1.00;0.38;;;30.10;48.90;;;;;;5063321;28;20025;-70
2021/04/03 04:47:39;;;;;;;1.45;0.50;;;30.20;49.50;;;;;;5072152;28;20550;-71
2021/04/03 04:50:08;;;;;;;2.15;0.60;;;30.20;48.40;;;;;;5074059;28;20032;-70
2021/04/03 04:52:37;;;;;;;0.50;0.20;;;29.90;48.70;;;;;;5073501;28;20017;-71
2021/04/03 04:55:05;;;;;;;0.40;0.20;;;30.00;51.20;;;;;;5074500;28;20051;-71
2021/04/03 04:57:32;;;;;;;1.05;0.30;;;30.30;50.40;;;;;;5072836;28;20032;-70
2021/04/03 05:00:01;;;;;;;1.05;0.40;;;30.60;48.90;;;;;;5071991;28;20068;-71
2021/04/03 05:02:28;;;;;;;0.88;0.30;;;30.50;47.80;;;;;;5069292;28;20024;-69
2021/04/03 05:04:55;;;;;;;1.73;0.50;;;30.70;48.80;;;;;;5064861;28;20033;-72
2021/04/03 05:07:23;;;;;;;0.95;0.40;;;30.60;48.60;;;;;;5073047;28;20425;-71
2021/04/03 05:09:51;;;;;;;0.98;0.40;;;30.70;48.70;;;;;;5073622;28;20040;-72
2021/04/03 05:12:18;;;;;;;4.68;1.58;;;30.70;48.90;;;;;;5067738;28;20488;-70
2021/04/03 05:14:46;;;;;;;0.22;0.20;;;30.30;49.50;;;;;;5078471;28;20044;-71
2021/04/03 05:17:13;;;;;;;1.23;0.35;;;30.10;48.50;;;;;;5074743;28;20417;-70
2021/04/03 05:19:40;;;;;;;2.05;0.90;;;29.80;48.60;;;;;;5079867;28;20066;-71
2021/04/03 05:22:08;;;;;;;0.60;0.60;;;29.50;50.60;;;;;;5081267;28;20076;-70
2021/04/03 05:24:35;;;;;;;3.13;0.70;;;29.40;50.00;;;;;;5078893;28;20064;-70
2021/04/03 05:27:03;;;;;;;1.30;0.40;;;29.50;51.60;;;;;;5079756;28;20016;-71
2021/04/03 05:29:30;;;;;;;0.75;0.35;;;29.50;50.70;;;;;;5078630;28;20075;-71
2021/04/03 05:31:57;;;;;;;0.70;0.40;;;29.60;51.10;;;;;;5082720;28;20024;-71
2021/04/03 05:34:25;;;;;;;2.22;0.70;;;29.30;51.00;;;;;;5071862;28;20028;-71
2021/04/03 05:36:52;;;;;;;2.90;0.52;;;29.10;51.80;;;;;;5081574;28;20111;-71
2021/04/03 05:39:19;;;;;;;0.68;0.38;;;29.00;52.20;;;;;;5073230;28;20335;-70
2021/04/03 05:41:47;;;;;;;2.17;0.50;;;29.00;52.30;;;;;;5073869;28;20485;-70
2021/04/03 05:44:15;;;;;;;1.95;0.70;;;28.90;51.70;;;;;;5080736;28;20425;-70
2021/04/03 05:46:43;;;;;;;0.28;0.20;;;29.10;51.90;;;;;;5074695;28;20028;-70
2021/04/03 05:49:11;;;;;;;1.85;0.50;;;28.90;52.00;;;;;;5075361;28;20388;-71
2021/04/03 05:51:39;;;;;;;1.00;0.30;;;28.90;51.70;;;;;;5079754;28;20024;-70
2021/04/03 05:54:07;;;;;;;0.68;0.30;;;28.80;53.20;;;;;;5079667;28;20360;-71
2021/04/03 05:56:35;;;;;;;1.38;0.43;;;28.70;52.70;;;;;;5080968;28;20102;-70
2021/04/03 05:59:03;;;;;;;0.98;0.47;;;28.70;53.00;;;;;;5078558;28;20113;-69
2021/04/03 06:01:32;;;;;;;2.03;0.65;;;28.60;53.50;;;;;;5072445;28;20119;-69
2021/04/03 06:04:00;;;;;;;1.52;0.40;;;28.60;52.90;;;;;;5071699;28;20400;-69
2021/04/03 06:06:28;;;;;;;2.15;0.30;;;28.40;54.10;;;;;;5065743;28;20044;-71
2021/04/03 06:08:55;;;;;;;0.68;0.40;;;28.30;53.40;;;;;;5070730;28;20050;-70
2021/04/03 06:11:24;;;;;;;1.25;0.70;;;28.20;53.70;;;;;;5078490;28;20028;-71
2021/04/03 06:13:57;;;;;;;1.13;0.38;;;28.20;54.60;;;;;;5079755;28;20498;-72
2021/04/03 06:16:32;;;;;;;1.02;0.40;;;28.30;54.20;;;;;;5079658;28;20043;-71
2021/04/03 06:19:09;;;;;;;1.70;0.85;;;28.20;53.90;;;;;;5076614;28;20070;-72
2021/04/03 06:21:53;;;;;;;2.58;0.60;;;28.10;55.20;;;;;;5076772;28;20036;-70
2021/04/03 06:24:36;;;;;;;1.70;0.63;;;28.10;55.40;;;;;;5079096;28;20028;-70
2021/04/03 06:27:10;;;;;;;1.73;0.88;;;27.90;54.90;;;;;;5069533;28;20115;-69
2021/04/03 06:29:43;;;;;;;3.17;1.30;;;27.90;55.50;;;;;;5074637;28;20043;-69
2021/04/03 06:32:32;;;;;;;1.42;0.73;;;27.80;55.60;;;;;;5077182;28;20490;-70
2021/04/03 06:34:59;;;;;;;1.35;0.70;;;27.90;56.40;;;;;;5077310;28;20070;-70
2021/04/03 06:37:31;;;;;;;2.33;0.52;;;27.90;56.50;;;;;;5074683;28;20089;-72
2021/04/03 06:40:01;;;;;;;1.02;0.40;;;27.70;57.50;;;;;;5070297;28;20038;-72
2021/04/03 06:42:47;;;;;;;2.80;0.40;;;27.60;58.50;;;;;;5079750;28;20397;-72
2021/04/03 06:45:35;;;;;;;1.23;0.60;;;27.60;58.50;;;;;;5075881;28;20486;-71
2021/04/03 06:48:05;;;;;;;3.65;0.60;;;27.60;59.30;;;;;;5079672;28;20036;-70
2021/04/03 06:50:37;;;;;;;1.70;0.73;;;27.50;60.00;;;;;;5075020;28;20075;-72
2021/04/03 06:53:09;;;;;;;1.65;0.70;;;27.30;61.30;;;;;;5075276;28;20024;-71
2021/04/03 06:55:37;;;;;;;4.20;0.95;;;27.10;61.50;;;;;;5072454;28;20343;-71
2021/04/03 06:58:06;;;;;;;1.67;0.80;;;27.00;62.40;;;;;;5077043;28;20593;-70
2021/04/03 07:00:35;;;;;;;2.60;0.90;;;26.90;62.80;;;;;;5077706;28;20086;-71
2021/04/03 07:03:23;;;;;;;3.53;0.93;;;26.70;63.50;;;;;;5080261;28;20489;-70
2021/04/03 07:05:52;;;;;;;1.92;0.50;;;26.40;64.80;;;;;;5072760;28;20040;-72
2021/04/03 07:08:20;;;;;;;2.35;0.80;;;26.30;65.60;;;;;;5068063;28;20024;-70
2021/04/03 07:10:48;;;;;;;2.17;0.90;;;26.10;66.30;;;;;;5066491;28;20035;-69
2021/04/03 07:13:15;;;;;;;1.30;0.80;;;26.00;67.30;;;;;;5072432;28;20031;-70
2021/04/03 07:15:46;;;;;;;3.20;0.95;;;25.90;67.60;;;;;;5069267;28;20105;-71
2021/04/03 07:18:15;;;;;;;2.25;0.60;;;25.90;68.00;;;;;;5069957;28;20467;-69
2021/04/03 07:20:44;;;;;;;0.80;0.70;;;25.70;68.40;;;;;;5070408;28;20394;-71
2021/04/03 07:23:15;;;;;;;2.38;0.70;;;25.60;69.00;;;;;;5068044;28;20032;-70
2021/04/03 07:25:45;;;;;;;2.50;1.00;;;25.50;69.70;;;;;;5069472;28;20025;-70
2021/04/03 07:28:15;;;;;;;5.85;1.00;;;25.30;70.60;;;;;;5068948;28;20033;-70
2021/04/03 07:30:45;;;;;;;1.65;0.60;;;25.20;70.90;;;;;;5062273;28;20050;-71
2021/04/03 07:33:23;;;;;;;4.07;1.42;;;25.20;71.50;;;;;;5075044;28;20028;-70
2021/04/03 07:35:54;;;;;;;2.15;0.60;;;24.90;72.60;;;;;;5076339;28;20115;-69
2021/04/03 07:38:29;;;;;;;2.65;0.95;;;24.80;73.70;;;;;;5076341;28;20075;-69
2021/04/03 07:40:58;;;;;;;3.40;0.65;;;24.60;74.30;;;;;;5073794;28;20016;-69
2021/04/03 07:43:36;;;;;;;3.35;0.73;;;24.60;74.60;;;;;;5078793;28;20695;-68
2021/04/03 07:46:21;;;;;;;2.80;0.73;;;24.50;75.30;;;;;;5071785;28;20024;-69
2021/04/03 07:48:53;;;;;;;1.25;0.50;;;24.40;75.80;;;;;;5073992;28;20052;-69
2021/04/03 07:51:23;;;;;;;3.28;0.60;;;24.40;76.00;;;;;;5075362;28;20090;-69
2021/04/03 07:53:56;;;;;;;2.05;0.50;;;24.40;76.20;;;;;;5077824;28;20044;-69
2021/04/03 07:56:26;;;;;;;5.55;0.90;;;24.30;76.70;;;;;;5079208;28;20070;-68
2021/04/03 07:58:56;;;;;;;3.03;0.60;;;24.20;77.00;;;;;;5074529;28;20028;-69
2021/04/03 08:01:26;;;;;;;2.17;0.70;;;24.10;77.40;;;;;;5074795;28;20469;-69
2021/04/03 08:04:03;;;;;;;1.10;0.52;;;24.10;77.40;;;;;;5074046;28;20022;-69
2021/04/03 08:06:36;;;;;;;2.85;1.02;;;23.90;77.90;;;;;;5073986;28;20028;-69
2021/04/03 08:09:16;;;;;;;2.38;0.60;;;23.90;78.00;;;;;;5073024;28;20647;-69
2021/04/03 08:11:45;;;;;;;3.20;0.82;;;23.80;78.30;;;;;;5070261;28;20057;-70
2021/04/03 08:14:17;;;;;;;2.25;0.60;;;23.80;78.80;;;;;;5069594;28;20098;-69
2021/04/03 08:16:45;;;;;;;2.78;0.40;;;23.70;79.60;;;;;;5079084;28;20035;-68
2021/04/03 08:19:14;;;;;;;1.98;0.60;;;23.50;79.80;;;;;;5066341;28;20028;-69
2021/04/03 08:21:47;;;;;;;1.10;0.50;;;23.40;80.30;;;;;;5076008;28;20390;-69
2021/04/03 08:24:19;;;;;;;1.50;0.50;;;23.40;80.70;;;;;;5066356;28;20081;-69
2021/04/03 08:26:49;;;;;;;1.30;0.50;;;23.30;81.30;;;;;;5066067;28;20045;-69
2021/04/03 08:29:48;;;;;;;2.92;0.50;;;23.20;81.60;;;;;;5069186;28;20163;-69
2021/04/03 08:32:15;;;;;;;3.72;0.70;;;23.20;81.90;;;;;;5069193;28;20044;-69
2021/04/03 08:34:46;;;;;;;1.42;0.80;;;23.10;82.30;;;;;;5069455;28;20121;-70
2021/04/03 08:37:14;;;;;;;3.20;0.90;;;23.10;82.50;;;;;;5071927;28;20119;-69
2021/04/03 08:39:41;;;;;;;3.50;1.02;;;23.10;83.00;;;;;;5064848;28;20085;-69
2021/04/03 08:42:09;;;;;;;1.92;0.73;;;23.10;82.70;;;;;;5074269;28;20032;-69
2021/04/03 08:44:36;;;;;;;2.67;1.10;;;23.10;82.60;;;;;;5077703;28;20024;-69
2021/04/03 08:47:05;;;;;;;3.40;0.75;;;23.00;83.00;;;;;;5072886;28;20052;-69
2021/04/03 08:49:34;;;;;;;1.90;1.00;;;23.00;82.90;;;;;;5073699;28;20125;-69
2021/04/03 08:52:03;;;;;;;1.25;0.70;;;23.00;83.40;;;;;;5080155;28;20044;-69
2021/04/03 08:54:44;;;;;;;1.73;0.90;;;22.90;83.50;;;;;;5080395;28;20102;-70
2021/04/03 08:57:29;;;;;;;2.15;0.73;;;22.80;83.80;;;;;;5076312;28;20073;-70
2021/04/03 08:59:59;;;;;;;9.73;1.23;;;22.70;84.30;;;;;;5072826;28;20363;-69
2021/04/03 09:02:26;;;;;;;2.50;1.05;;;22.70;84.70;;;;;;5080381;28;20031;-69
2021/04/03 09:04:54;;;;;;;2.88;0.85;;;22.60;85.00;;;;;;5079049;28;20110;-69
2021/04/03 09:07:35;;;;;;;1.58;1.10;;;22.50;85.20;;;;;;5079009;28;20032;-69
2021/04/03 09:10:14;;;;;;;1.35;0.77;;;22.50;85.30;;;;;;5069094;28;20045;-69
2021/04/03 09:12:42;;;;;;;5.05;0.90;;;22.50;85.30;;;;;;5075109;28;20027;-69
2021/04/03 09:15:11;;;;;;;3.00;0.90;;;22.40;85.70;;;;;;5069710;28;20029;-69
2021/04/03 09:17:53;;;;;;;2.75;0.63;;;22.50;85.70;;;;;;5077023;28;20044;-68
2021/04/03 09:20:29;;;;;;;2.80;1.05;;;22.40;85.60;;;;;;5072087;28;20055;-68
2021/04/03 09:23:07;;;;;;;1.80;0.93;;;22.30;86.00;;;;;;5079809;28;20542;-69
2021/04/03 09:25:36;;;;;;;4.95;1.20;;;22.30;86.20;;;;;;5076321;28;20180;-69
2021/04/03 09:28:15;;;;;;;3.55;1.10;;;22.30;86.10;;;;;;5079907;28;20031;-68
2021/04/03 09:30:46;;;;;;;2.22;0.90;;;22.20;86.70;;;;;;5073701;28;20039;-69
2021/04/03 09:33:16;;;;;;;2.42;0.95;;;22.10;86.90;;;;;;5079406;28;20024;-69
2021/04/03 09:35:44;;;;;;;1.33;0.70;;;22.10;87.10;;;;;;5067826;28;20055;-72
2021/04/03 09:38:12;;;;;;;1.20;0.70;;;22.00;87.50;;;;;;5068272;28;20032;-70
2021/04/03 09:40:46;;;;;;;0.85;0.50;;;22.10;87.10;;;;;;5070516;28;20034;-72
2021/04/03 09:43:15;;;;;;;3.45;1.10;;;22.00;87.60;;;;;;5075549;28;20035;-69
2021/04/03 09:45:43;;;;;;;1.13;0.73;;;21.90;87.80;;;;;;5076914;28;20115;-69
2021/04/03 09:48:11;;;;;;;1.83;0.90;;;21.90;87.80;;;;;;5075523;28;20052;-69
2021/04/03 09:50:41;;;;;;;3.80;0.90;;;21.90;88.10;;;;;;5070409;28;20120;-69
2021/04/03 09:53:10;;;;;;;1.63;0.70;;;21.70;88.60;;;;;;5066719;28;20039;-70
2021/04/03 09:55:38;;;;;;;3.03;1.15;;;21.60;89.30;;;;;;5067843;28;20136;-70
2021/04/03 09:58:06;;;;;;;3.58;0.90;;;21.60;89.30;;;;;;5074179;28;20063;-70
2021/04/03 10:00:34;;;;;;;3.40;1.00;;;21.70;89.00;;;;;;5078350;28;20514;-69
2021/04/03 10:03:01;;;;;;;4.30;1.48;;;21.70;88.70;;;;;;5077894;28;20032;-71
2021/04/03 10:05:29;;;;;;;1.40;0.85;;;21.70;89.10;;;;;;5077684;28;20066;-70
2021/04/03 10:07:56;;;;;;;5.22;1.67;;;21.60;89.60;;;;;;5072449;28;20025;-71
2021/04/03 10:10:24;;;;;;;3.72;1.23;;;21.60;89.70;;;;;;5070338;28;20386;-71
2021/04/03 10:12:52;;;;;;;1.83;1.15;;;21.60;89.70;;;;;;5072082;28;21173;-70
2021/04/03 10:15:21;;;;;;;2.60;1.10;;;21.50;89.90;;;;;;5064984;28;20056;-71
2021/04/03 10:17:49;;;;;;;4.35;1.42;;;21.40;90.10;;;;;;5076319;28;20346;-71
2021/04/03 10:20:18;;;;;;;2.85;1.23;;;21.40;90.30;;;;;;5069219;28;20033;-72
2021/04/03 10:22:46;;;;;;;3.88;1.50;;;21.30;90.40;;;;;;5072746;28;20074;-71
2021/04/03 10:25:14;;;;;;;2.95;1.30;;;21.20;90.40;;;;;;5077260;28;20478;-72
2021/04/03 10:27:42;;;;;;;1.58;1.27;;;21.20;90.70;;;;;;5074016;28;20081;-69
2021/04/03 10:30:11;;;;;;;4.22;1.40;;;21.00;90.90;;;;;;5076401;28;20128;-70
2021/04/03 10:32:38;;;;;;;4.20;1.30;;;21.00;90.80;;;;;;5075094;28;20024;-71
2021/04/03 10:35:07;;;;;;;2.10;0.90;;;21.10;90.60;;;;;;5067870;28;20028;-70
2021/04/03 10:37:34;;;;;;;2.38;1.30;;;21.30;90.50;;;;;;5073390;28;20052;-71
2021/04/03 10:40:01;;;;;;;3.75;1.10;;;21.40;90.40;;;;;;5067358;28;20032;-69
2021/04/03 10:42:29;;;;;;;2.47;1.05;;;21.40;90.20;;;;;;5075141;28;20114;-71
2021/04/03 10:44:58;;;;;;;2.20;1.05;;;21.50;90.10;;;;;;5068450;28;20021;-72
2021/04/03 10:47:27;;;;;;;1.75;1.00;;;21.50;90.10;;;;;;5069768;28;20143;-72
2021/04/03 10:49:54;;;;;;;3.33;0.85;;;21.50;90.10;;;;;;5069591;28;20040;-72
2021/04/03 10:52:23;;;;;;;2.10;0.85;;;21.40;90.20;;;;;;5075316;28;20016;-71
2021/04/03 10:54:50;;;;;;;2.80;1.17;;;21.30;90.50;;;;;;5066482;28;20036;-72
2021/04/03 10:57:21;;;;;;;3.08;1.08;;;21.20;90.40;;;;;;5069889;28;20046;-70
2021/04/03 10:59:50;;;;;;;4.43;1.70;;;21.20;90.50;;;;;;5071901;28;20016;-71
2021/04/03 11:02:17;;;;;;;2.80;1.90;;;21.20;90.70;;;;;;5074281;28;20027;-69
2021/04/03 11:04:44;;;;;;;1.77;1.30;;;21.20;90.70;;;;;;5073870;28;20075;-71
2021/04/03 11:07:12;;;;;;;3.58;1.50;;;21.20;90.60;;;;;;5069857;28;20102;-71
2021/04/03 11:09:39;;;;;;;2.15;1.35;;;21.20;90.80;;;;;;5063084;28;20037;-70
2021/04/03 11:12:07;;;;;;;1.90;1.30;;;21.20;90.50;;;;;;5070064;28;20111;-71
2021/04/03 11:14:34;;;;;;;2.42;1.48;;;21.30;90.40;;;;;;5068138;28;20016;-72
2021/04/03 11:17:02;;;;;;;1.75;1.20;;;21.20;90.40;;;;;;5070478;28;20024;-72
2021/04/03 11:19:29;;;;;;;4.00;1.30;;;21.20;90.30;;;;;;5075627;28;20040;-72
2021/04/03 11:21:56;;;;;;;2.45;1.17;;;21.10;90.40;;;;;;5074808;28;20022;-71
2021/04/03 11:24:24;;;;;;;5.07;1.80;;;21.10;90.50;;;;;;5075194;28;20052;-70
2021/04/03 11:26:52;;;;;;;1.58;1.00;;;21.00;90.30;;;;;;5063076;28;20118;-69
2021/04/03 11:29:20;;;;;;;2.13;1.38;;;21.00;90.50;;;;;;5068322;28;20118;-69
2021/04/03 11:31:47;;;;;;;2.28;1.42;;;20.90;90.40;;;;;;5077173;28;20092;-70
2021/04/03 11:34:15;;;;;;;1.38;1.00;;;21.00;90.20;;;;;;5074722;28;20028;-71
2021/04/03 11:36:42;;;;;;;2.78;1.38;;;20.90;90.20;;;;;;5077338;28;20469;-69
2021/04/03 11:39:10;;;;;;;2.33;1.35;;;20.90;90.20;;;;;;5066103;28;20154;-68
2021/04/03 11:41:37;;;;;;;2.28;1.20;;;20.80;90.30;;;;;;5077744;28;20032;-69
2021/04/03 11:44:05;;;;;;;2.63;1.30;;;20.60;90.50;;;;;;5069374;28;20032;-73
2021/04/03 11:46:32;;;;;;;1.23;1.10;;;20.60;90.80;;;;;;5076601;28;20029;-71
2021/04/03 11:49:00;;;;;;;2.47;1.48;;;20.40;90.90;;;;;;5072489;28;20048;-71
2021/04/03 11:51:27;;;;;;;2.30;1.38;;;20.40;91.10;;;;;;5072265;28;20653;-69
2021/04/03 11:53:55;;;;;;;2.80;1.58;;;20.30;91.10;;;;;;5073634;28;20470;-74
2021/04/03 11:56:22;;;;;;;4.55;1.50;;;20.20;91.40;;;;;;5073383;28;20028;-75
2021/04/03 11:58:50;;;;;;;3.85;1.33;;;20.20;91.30;;;;;;5068798;28;20029;-75
2021/04/03 12:01:21;;;;;;;2.78;1.40;;;20.00;91.60;;;;;;5072931;28;20062;-74
2021/04/03 12:03:48;;;;;;;3.13;1.85;;;20.00;92.10;;;;;;5073027;28;20647;-73
2021/04/03 12:06:16;;;;;;;5.97;4.28;;;19.90;92.50;;;;;;5071294;28;20017;-73
2021/04/03 12:08:43;;;;;;;5.35;3.72;;;19.90;92.60;;;;;;5068950;28;20471;-75
2021/04/03 12:11:11;;;;;;;8.70;4.13;;;19.80;92.30;;;;;;5067316;28;20043;-73
2021/04/03 12:13:38;;;;;;;8.50;5.15;;;19.80;92.40;;;;;;5067273;28;20324;-77
2021/04/03 12:16:05;;;;;;;8.85;6.47;;;19.80;92.30;;;;;;5074212;28;20055;-73
2021/04/03 12:18:33;;;;;;;6.82;5.20;;;19.70;92.00;;;;;;5073215;28;20034;-76
2021/04/03 12:21:01;;;;;;;5.70;4.38;;;19.70;92.10;;;;;;5067246;28;20119;-78
2021/04/03 12:23:28;;;;;;;6.22;2.92;;;19.70;92.30;;;;;;5080863;28;20024;-75
2021/04/03 12:25:56;;;;;;;4.40;3.75;;;19.60;92.40;;;;;;5078740;28;20032;-73
2021/04/03 12:28:23;;;;;;;5.95;2.88;;;19.60;92.30;;;;;;5076839;28;20060;-74
2021/04/03 12:30:50;;;;;;;4.35;3.42;;;19.50;92.10;;;;;;5068657;28;20491;-74
2021/04/03 12:33:18;;;;;;;8.07;4.15;;;19.50;92.20;;;;;;5074200;28;20506;-72
2021/04/03 12:35:45;;;;;;;5.07;3.80;;;19.40;92.30;;;;;;5077832;28;20479;-73
2021/04/03 12:38:12;;;;;;;5.95;3.22;;;19.40;92.40;;;;;;5072916;28;20431;-72
2021/04/03 12:40:40;;;;;;;6.05;3.60;;;19.40;92.40;;;;;;5075347;28;20449;-75
2021/04/03 12:43:07;;;;;;;6.32;3.88;;;19.30;92.40;;;;;;5086020;28;20396;-77
2021/04/03 12:45:35;;;;;;;4.55;3.58;;;19.30;92.50;;;;;;5067984;28;20144;-74
2021/04/03 12:48:02;;;;;;;4.25;3.85;;;19.30;92.90;;;;;;5078669;28;20032;-73
2021/04/03 12:50:29;;;;;;;5.25;3.03;;;19.30;93.10;;;;;;5066113;28;20037;-74
2021/04/03 12:52:57;;;;;;;4.25;2.97;;;19.20;93.00;;;;;;5083798;28;20409;-74
2021/04/03 12:55:24;;;;;;;4.72;3.25;;;19.20;93.10;;;;;;5077266;28;20386;-74
2021/04/03 12:57:51;;;;;;;5.40;3.03;;;19.20;93.00;;;;;;5062653;28;20708;-71
2021/04/03 13:00:19;;;;;;;5.40;3.08;;;19.20;93.50;;;;;;5076719;28;20344;-70
2021/04/03 13:02:47;;;;;;;4.00;3.42;;;19.20;93.40;;;;;;5081359;28;20029;-71